createdAt,value
2019-04-06T00:01:12.290Z,22.70
2019-04-06T00:12:12.142Z,20.00
2019-04-06T00:23:12.057Z,17.40
2019-04-06T00:34:11.890Z,17.20
2019-04-06T00:45:11.781Z,19.50
2019-04-06T00:56:11.660Z,17.10
2019-04-06T01:07:11.538Z,14.80
2019-04-06T01:18:11.417Z,14.20
2019-04-06T01:29:11.285Z,13.80
2019-04-06T01:40:11.187Z,15.30
2019-04-06T01:51:11.036Z,14.10
2019-04-06T02:02:10.917Z,16.40
2019-04-06T02:13:10.788Z,14.20
2019-04-06T02:24:10.690Z,11.90
2019-04-06T02:35:10.556Z,12.80
2019-04-06T02:46:10.416Z,13.60
2019-04-06T02:57:10.302Z,15.70
2019-04-06T03:08:10.171Z,16.10
2019-04-06T03:19:10.044Z,16.70
2019-04-06T03:30:09.931Z,17.00
2019-04-06T03:41:09.808Z,19.10
2019-04-06T03:52:09.672Z,16.80
2019-04-06T04:03:09.551Z,15.90
2019-04-06T04:14:09.565Z,15.40
2019-04-06T04:25:09.330Z,15.40
2019-04-06T04:36:09.197Z,13.10
2019-04-06T04:47:09.066Z,12.80
2019-04-06T04:58:09.114Z,15.80
2019-04-06T05:09:08.811Z,15.20
2019-04-06T05:20:08.685Z,15.80
2019-04-06T05:31:08.559Z,19.80
2019-04-06T05:42:08.446Z,16.80
2019-04-06T05:53:08.323Z,20.50
2019-04-06T06:04:08.815Z,18.40
2019-04-06T06:15:08.067Z,18.50
2019-04-06T06:26:08.020Z,20.00
2019-04-06T06:37:07.825Z,12.10
2019-04-06T06:48:07.702Z,13.80
2019-04-06T06:59:07.573Z,17.20
2019-04-06T07:10:07.635Z,14.30
2019-04-06T07:21:07.320Z,16.80
2019-04-06T07:32:07.252Z,16.00
2019-04-06T07:43:07.068Z,17.30
2019-04-06T07:54:07.131Z,18.60
2019-04-06T08:05:06.841Z,18.40
2019-04-06T08:16:06.710Z,20.30
2019-04-06T08:27:06.757Z,18.60
2019-04-06T08:38:06.461Z,22.70
2019-04-06T08:49:06.321Z,22.20
2019-04-06T09:00:07.205Z,19.10
2019-04-06T09:11:06.089Z,22.50
2019-04-06T09:22:06.080Z,18.80
2019-04-06T09:33:06.031Z,20.70
2019-04-06T09:44:05.712Z,20.60
2019-04-06T09:55:06.571Z,21.30
2019-04-06T10:06:05.630Z,19.70
2019-04-06T10:17:05.320Z,22.40
2019-04-06T10:28:05.206Z,20.40
2019-04-06T10:39:05.112Z,19.20
2019-04-06T10:53:56.129Z,27.50
2019-04-06T11:04:58.050Z,20.30
2019-04-06T11:15:58.066Z,23.90
2019-04-06T11:26:57.970Z,23.20
2019-04-06T11:37:57.700Z,23.20
2019-04-06T11:48:57.562Z,22.00
2019-04-06T11:59:57.636Z,22.00
2019-04-06T12:10:57.333Z,19.90
2019-04-06T12:21:57.399Z,18.70
2019-04-06T12:32:57.175Z,16.40
2019-04-06T12:43:56.978Z,15.10
2019-04-06T12:54:56.830Z,9.80
2019-04-06T13:05:56.702Z,10.00
2019-04-06T13:16:56.596Z,9.00
2019-04-06T13:27:56.509Z,11.90
2019-04-06T13:38:56.354Z,13.80
2019-04-06T13:49:56.533Z,14.20
2019-04-06T14:00:56.294Z,14.40
2019-04-06T14:11:56.345Z,13.80
2019-04-06T14:22:56.091Z,16.60
2019-04-06T14:33:55.730Z,15.20
2019-04-06T14:44:55.814Z,14.70
2019-04-06T14:55:55.643Z,13.80
2019-04-06T15:06:55.368Z,15.00
2019-04-06T15:17:55.484Z,15.10
2019-04-06T15:28:55.239Z,16.00
2019-04-06T15:39:55.002Z,17.20
2019-04-06T15:50:54.896Z,15.20
2019-04-06T16:02:01.501Z,13.50
2019-04-06T16:12:54.632Z,15.00
2019-04-06T16:24:02.224Z,13.90
2019-04-06T16:34:54.386Z,14.10
2019-04-06T16:45:54.300Z,13.10
2019-04-06T16:56:54.153Z,13.30
2019-04-06T17:07:54.023Z,16.10
2019-04-06T17:18:53.894Z,15.20
2019-04-06T17:29:54.085Z,15.00
2019-04-06T17:40:53.659Z,17.30
2019-04-06T17:51:53.528Z,16.40
2019-04-06T18:02:53.407Z,18.20
2019-04-06T18:13:53.280Z,18.20
2019-04-06T18:24:53.339Z,18.70
2019-04-06T18:35:53.037Z,19.90
2019-04-06T18:46:52.952Z,19.00
2019-04-06T18:57:52.776Z,20.70
2019-04-06T19:08:52.674Z,20.10
2019-04-06T19:19:52.525Z,22.20
2019-04-06T19:30:52.402Z,22.00
2019-04-06T19:41:52.606Z,21.60
2019-04-06T19:52:52.160Z,21.40
2019-04-06T20:03:52.686Z,23.80
2019-04-06T20:14:51.925Z,23.00
2019-04-06T20:25:52.026Z,22.50
2019-04-06T20:36:51.674Z,23.60
2019-04-06T20:47:52.285Z,23.90
2019-04-06T20:58:51.425Z,23.50
2019-04-06T21:09:51.303Z,22.40
2019-04-06T21:20:51.182Z,24.80
2019-04-06T21:31:51.070Z,25.20
2019-04-06T21:42:51.199Z,24.50
2019-04-06T21:53:50.832Z,26.90
2019-04-06T22:04:50.700Z,27.90
2019-04-06T22:15:50.743Z,27.30
2019-04-06T22:26:50.704Z,26.80
2019-04-06T22:37:51.367Z,26.60
2019-04-06T22:48:50.715Z,24.50
2019-04-06T22:59:50.719Z,26.70
2019-04-06T23:10:50.464Z,26.30
2019-04-06T23:21:49.839Z,27.30
2019-04-06T23:32:50.005Z,22.70
2019-04-06T23:43:49.596Z,24.90
2019-04-06T23:54:49.502Z,25.10
